Relevés horaires Beznau (Suisse)


Relevés horaires à Beznau - Lundi 27 Juill. 2015
Heure UTC1 Température [°C] Vent [km/h] Hum. [%] Pres.4 [hPa] Visi. [Km] Nébu. [octa] Préc.5 [mm] Cond.
2m. Res. Ros. Dir.2 Vit. Moy. Raf.3
23:00 19.1 19.1 11.1 S 3.7 3.7 11.1 60 1010.5(0.0/3h) -- -- -- --
22:00 19.3 19.3 11.3 S 3.7 5.6 16.7 60 1010.7(0.4/3h) -- -- -- --
21:00 19.3 19.3 11.2 SSO 1.9 13.0 27.8 59 1010.6(0.9/3h) -- -- -- --
20:00 20.8 20.8 10.1 SSO 5.6 7.4 16.7 50 1010.2(0.9/3h) -- -- -- --
19:00 22.2 22.2 9.1 OSO 13.0 13.0 27.8 43 1009.8(0.6/3h) -- -- -- --
18:00 22.5 22.5 10.0 OSO 7.4 20.4 44.4 45 1009.2(0.4/3h) -- -- -- --
17:00 23.0 23.0 10.1 ONO 11.1 13.0 38.9 44 1009(0.2/3h) -- -- -- --
16:00 23.5 23.5 10.2 ONO 13.0 18.5 38.9 43 1009(0.4/3h) -- -- -- --
15:00 23.7 23.7 9.2 OSO 14.8 20.4 44.4 40 1008.6(0.0/3h) -- -- -- --
14:00 23.2 23.2 10.0 O 16.7 20.4 44.4 43 1008.8(0.0/3h) -- -- -- --
13:00 22.9 22.9 11.3 ONO 16.7 18.5 40.7 48 1008.7(0.5/3h) -- -- -- --
12:00 22.7 22.7 10.8 O 14.8 25.9 59.3 47 1008.7(0.3/3h) -- -- -- --
11:00 22.3 22.3 11.6 ONO 16.7 22.2 51.9 51 1008.9(0.5/3h) -- -- -- --
10:00 22.8 22.8 11.3 OSO 18.5 18.5 44.4 48 1008.2(-0.2/3h) -- -- -- --
09:00 21.0 21.0 12.3 O 13.0 14.8 35.2 58 1008.7(0.3/3h) -- -- -- --
08:00 20.0 20.0 12.5 O 9.3 13.0 27.8 62 1008.7(0.3/3h) -- -- -- --
07:00 18.6 18.6 12.9 O 9.3 11.1 27.8 69 1009(1.0/3h) -- -- -- --
06:00 17.5 17.5 13.9 OSO 11.1 11.1 25.9 79 1008.8(0.6/3h) -- -- -- --
05:00 15.3 15.3 14.5 O 1.9 3.7 11.1 95 1009(0.3/3h) -- -- -- --
04:00 14.7 14.7 14.2 S 5.6 5.6 14.8 97 1008.5(-0.7/3h) -- -- -- --
03:00 14.9 14.9 14.2 S 3.7 9.3 16.7 96 1008.6(-0.9/3h) -- -- -- --
02:00 14.7 14.7 14.2 S 5.6 9.3 16.7 97 1008.8(-1.3/3h) -- -- -- --
01:00 14.5 14.5 13.8 SSO 5.6 5.6 11.1 96 1009.2(-1.6/3h) -- -- -- --
00:00 14.4 14.4 13.3 SSO 5.6 7.4 14.8 93 1009.6(-1.5/3h) -- -- -- --

1 Coordinated Universal Time. Actuellement il est 18:00 locale et 16:00 UTC.

2 Le vent souffle depuis la direction indiquée vers la direction oposée.

3 Les rafales max. sont disponible 40 min après l'heure du relevé.

4 Pour les stations d'altitude (plus de 600m) le géopotentiel du niveau le plus proche de la pression obligatoire est indiqué.

5 Les stations disposant d'un diffuseur peuvent indiquer "trace". Cela signifie que des précipitations ont touchés le sol mais que la quantité est inférieure à 0.1 mm.

Copyright

Les données affichées sur cette page sont la propriété exclusive de Météo Suisse.

Récapitulatif de la journée
Température [°C] Vent [km/h] Ensoleillement4 [h] Precipitations totale5 [mm] Pression [Hpa]
Min1 Max.2 Moy.3 Max. Min Max.
13.9 24.3 13 59.3 9 h 6 min 0 1008.2 1010.7

1 Température minimale relevée entre 18:00 UTC la veille et 18:00 UTC le jour donné.

2 Température maximale relevée entre 06:00 UTC le jour donné et 06:00 UTC le lendemain.

3 Vent moyen de la journée basé sur les relevés horaires.

4 Ensoleillement en heures relevé entre 06:00 UTC la veille et 06:00 UTC le jour donné.

5 Précipitations totales tombées entre 06:00 UTC la jour donné et 06:00 UTC le lendemain.

Graphiques horaires